Time;durP1;ratioP1;P1;durP2;ratioP2;P2;SDS_P1;SDS_P2;PMS_P1;PMS_P2;Temp;Humidity;BMP_temperature;BMP_pressure;BME280_temperature;BME280_humidity;BME280_pressure;Samples;Min_cycle;Max_cycle;Signal;HPM_P1;HPM_P2
2023/08/03 00:01:03;;;;;;;15.33;7.47;;;19.60;99.90;;;;;;5014109;28;20498;-64
2023/08/03 00:03:31;;;;;;;11.47;4.40;;;19.60;99.90;;;;;;5011259;28;20963;-61
2023/08/03 00:05:58;;;;;;;12.43;6.03;;;19.50;99.90;;;;;;5016083;28;20487;-63
2023/08/03 00:08:25;;;;;;;5.30;4.03;;;19.40;99.90;;;;;;5002172;28;20489;-63
2023/08/03 00:10:52;;;;;;;8.87;4.23;;;19.50;99.90;;;;;;5013071;28;20480;-65
2023/08/03 00:13:19;;;;;;;7.80;4.50;;;19.50;99.90;;;;;;5014391;28;20474;-67
2023/08/03 00:15:46;;;;;;;6.73;3.83;;;19.50;99.90;;;;;;5014688;28;20488;-64
2023/08/03 00:18:13;;;;;;;13.00;6.13;;;19.30;99.90;;;;;;5014039;28;20484;-66
2023/08/03 00:20:41;;;;;;;10.37;5.40;;;19.40;99.90;;;;;;5021085;28;20658;-64
2023/08/03 00:23:08;;;;;;;14.87;7.80;;;19.40;99.90;;;;;;5014060;28;20574;-69
2023/08/03 00:25:34;;;;;;;13.77;5.60;;;19.20;99.90;;;;;;5012084;28;20848;-66
2023/08/03 00:28:01;;;;;;;7.97;5.43;;;19.30;99.90;;;;;;5013414;28;20495;-62
2023/08/03 00:30:28;;;;;;;6.50;4.87;;;19.40;99.90;;;;;;5010034;28;20983;-66
2023/08/03 00:32:55;;;;;;;9.63;6.70;;;19.40;99.90;;;;;;5024893;28;20472;-66
2023/08/03 00:35:22;;;;;;;8.80;4.87;;;19.30;99.90;;;;;;5013216;28;20548;-63
2023/08/03 00:37:51;;;;;;;4.73;3.53;;;19.20;99.90;;;;;;5014026;28;20504;-63
2023/08/03 00:40:18;;;;;;;13.53;3.83;;;19.10;99.90;;;;;;5011627;28;20488;-66
2023/08/03 00:42:45;;;;;;;11.43;5.17;;;19.20;99.90;;;;;;5014437;28;20971;-66
2023/08/03 00:45:12;;;;;;;7.40;6.33;;;19.10;99.90;;;;;;5012596;28;20542;-64
2023/08/03 00:47:39;;;;;;;5.47;3.80;;;19.20;99.90;;;;;;5013990;28;20480;-68
2023/08/03 00:50:07;;;;;;;8.70;6.03;;;19.20;99.90;;;;;;5014791;28;20478;-63
2023/08/03 00:52:34;;;;;;;19.00;6.20;;;19.00;99.90;;;;;;5012753;28;20634;-63
2023/08/03 00:55:03;;;;;;;11.17;6.67;;;18.80;99.90;;;;;;5011648;28;21085;-66
2023/08/03 00:57:30;;;;;;;5.57;3.90;;;18.70;99.90;;;;;;5013329;28;20562;-65
2023/08/03 00:59:57;;;;;;;5.70;3.47;;;18.60;99.90;;;;;;5015160;28;20484;-64
2023/08/03 01:02:24;;;;;;;5.07;3.30;;;18.40;99.90;;;;;;5016839;28;20481;-65
2023/08/03 01:04:51;;;;;;;5.90;3.57;;;18.40;99.90;;;;;;5006606;28;20489;-63
2023/08/03 01:07:18;;;;;;;8.13;5.10;;;18.20;99.90;;;;;;5011435;28;21404;-64
2023/08/03 01:09:44;;;;;;;12.10;4.77;;;18.30;99.90;;;;;;5015459;28;20481;-66
2023/08/03 01:12:13;;;;;;;6.60;5.60;;;18.30;99.90;;;;;;5011251;28;20489;-65
2023/08/03 01:14:40;;;;;;;5.80;4.57;;;18.40;99.90;;;;;;5015037;28;20480;-65
2023/08/03 01:17:07;;;;;;;15.93;7.93;;;18.40;99.90;;;;;;5010180;28;21352;-65
2023/08/03 01:19:34;;;;;;;7.47;4.13;;;18.30;99.90;;;;;;5009852;28;20594;-64
2023/08/03 01:22:03;;;;;;;10.70;4.30;;;18.40;99.90;;;;;;5015124;28;20509;-64
2023/08/03 01:24:31;;;;;;;10.00;5.50;;;18.40;99.90;;;;;;5013857;28;20450;-63
2023/08/03 01:27:00;;;;;;;8.10;5.40;;;18.40;99.90;;;;;;5011134;28;20487;-65
2023/08/03 01:29:27;;;;;;;6.13;4.20;;;18.40;99.90;;;;;;5014679;28;21256;-65
2023/08/03 01:31:56;;;;;;;4.60;3.33;;;18.50;99.90;;;;;;5011520;28;20475;-63
2023/08/03 01:34:24;;;;;;;9.53;5.30;;;18.50;99.90;;;;;;5011678;28;20905;-62
2023/08/03 01:36:51;;;;;;;6.60;4.33;;;18.50;99.90;;;;;;5016195;28;20476;-64
2023/08/03 01:39:17;;;;;;;8.10;4.90;;;18.50;99.90;;;;;;5014613;28;20485;-66
2023/08/03 01:41:46;;;;;;;12.70;5.63;;;18.30;99.90;;;;;;5018591;28;20904;-64
2023/08/03 01:44:26;;;;;;;14.33;7.23;;;18.30;99.90;;;;;;5016467;28;20650;-66
2023/08/03 01:46:54;;;;;;;7.27;3.40;;;18.20;99.90;;;;;;5019193;28;20476;-63
2023/08/03 01:49:21;;;;;;;9.43;4.30;;;18.20;99.90;;;;;;5020926;28;20487;-62
2023/08/03 01:51:49;;;;;;;9.87;4.60;;;18.10;99.90;;;;;;5021530;28;20616;-62
2023/08/03 01:54:16;;;;;;;8.70;5.47;;;18.00;99.90;;;;;;5017524;28;20880;-65
2023/08/03 01:56:43;;;;;;;8.40;5.53;;;17.90;99.90;;;;;;5020032;28;20480;-64
2023/08/03 01:59:13;;;;;;;17.03;7.77;;;17.80;99.90;;;;;;5017640;28;20590;-64
2023/08/03 02:01:40;;;;;;;9.70;5.77;;;17.80;99.90;;;;;;5017052;28;20483;-66
2023/08/03 02:04:07;;;;;;;16.20;9.10;;;17.80;99.90;;;;;;5021034;28;21150;-64
2023/08/03 02:06:34;;;;;;;7.13;4.20;;;17.80;99.90;;;;;;5020589;28;20467;-64
2023/08/03 02:09:00;;;;;;;12.63;6.70;;;17.90;99.90;;;;;;5017150;28;20558;-65
2023/08/03 02:11:28;;;;;;;12.13;5.20;;;17.90;99.90;;;;;;5004356;28;20878;-63
2023/08/03 02:13:55;;;;;;;9.67;3.77;;;17.90;99.90;;;;;;5016829;28;20910;-64
2023/08/03 02:16:23;;;;;;;11.50;4.23;;;18.00;99.90;;;;;;5022714;28;20479;-66
2023/08/03 02:18:50;;;;;;;7.53;4.27;;;17.90;99.90;;;;;;5013826;28;20471;-64
2023/08/03 02:21:17;;;;;;;17.53;5.47;;;16.20;99.90;;;;;;5017481;28;20523;-64
2023/08/03 02:23:43;;;;;;;9.50;4.80;;;17.90;99.90;;;;;;5013226;28;20479;-62
2023/08/03 02:26:10;;;;;;;8.97;5.43;;;17.90;99.90;;;;;;5019197;28;20480;-65
2023/08/03 02:28:37;;;;;;;12.67;5.97;;;18.00;99.90;;;;;;5020127;28;20476;-64
2023/08/03 02:31:04;;;;;;;11.03;6.83;;;18.10;99.90;;;;;;5024146;28;20491;-65
2023/08/03 02:33:32;;;;;;;8.20;4.23;;;18.10;99.90;;;;;;5021201;28;20472;-65
2023/08/03 02:35:59;;;;;;;9.10;4.90;;;18.00;99.90;;;;;;5022850;28;20468;-65
2023/08/03 02:38:26;;;;;;;5.80;3.30;;;18.00;99.90;;;;;;5020231;28;20555;-66
2023/08/03 02:40:54;;;;;;;10.27;3.40;;;18.20;99.90;;;;;;5020577;28;20587;-65
2023/08/03 02:43:20;;;;;;;7.73;4.03;;;18.00;99.90;;;;;;5019845;28;20483;-65
2023/08/03 02:45:47;;;;;;;7.17;3.60;;;18.00;99.90;;;;;;5021037;28;20864;-63
2023/08/03 02:48:14;;;;;;;12.90;6.70;;;18.10;99.90;;;;;;5017469;28;20487;-65
2023/08/03 02:50:42;;;;;;;11.70;5.67;;;17.80;99.90;;;;;;5021133;28;20575;-68
2023/08/03 02:53:10;;;;;;;12.30;8.10;;;18.00;99.90;;;;;;5019858;28;20473;-65
2023/08/03 02:55:39;;;;;;;8.60;5.80;;;18.00;99.90;;;;;;5022673;28;21180;-66
2023/08/03 02:58:05;;;;;;;19.60;7.93;;;18.00;99.90;;;;;;5007817;28;20992;-66
2023/08/03 03:00:32;;;;;;;7.80;4.40;;;18.00;99.90;;;;;;5022415;28;20486;-64
2023/08/03 03:02:59;;;;;;;11.57;6.97;;;18.00;99.90;;;;;;5021005;28;20553;-65
2023/08/03 03:05:26;;;;;;;6.70;3.20;;;17.80;99.90;;;;;;5022106;28;20492;-66
2023/08/03 03:07:54;;;;;;;9.73;7.13;;;17.80;99.90;;;;;;5016788;28;21253;-65
2023/08/03 03:10:21;;;;;;;8.23;3.27;;;17.80;99.90;;;;;;5019014;28;20651;-66
2023/08/03 03:12:48;;;;;;;9.00;4.20;;;17.80;99.90;;;;;;5029389;28;20468;-68
2023/08/03 03:15:15;;;;;;;9.50;5.60;;;17.80;99.90;;;;;;5015768;28;20972;-65
2023/08/03 03:17:42;;;;;;;13.50;4.83;;;17.80;99.90;;;;;;5022007;28;20499;-65
2023/08/03 03:20:10;;;;;;;15.43;6.63;;;17.80;99.90;;;;;;5017907;28;20581;-65
2023/08/03 03:22:37;;;;;;;11.97;6.13;;;17.90;99.90;;;;;;5020953;28;20522;-66
2023/08/03 03:25:06;;;;;;;16.13;7.90;;;17.90;99.90;;;;;;5016988;28;20554;-63
2023/08/03 03:27:33;;;;;;;7.00;4.10;;;17.80;99.90;;;;;;5019237;28;20622;-66
2023/08/03 03:30:00;;;;;;;8.30;4.97;;;17.80;99.90;;;;;;5014282;28;20579;-66
2023/08/03 03:32:27;;;;;;;10.00;4.50;;;17.80;99.90;;;;;;5020203;28;20491;-65
2023/08/03 03:34:54;;;;;;;11.53;5.77;;;17.90;99.90;;;;;;5019732;28;20480;-65
2023/08/03 03:37:20;;;;;;;15.23;5.27;;;18.00;99.90;;;;;;5021954;28;20499;-63
2023/08/03 03:39:47;;;;;;;7.10;3.57;;;17.90;99.90;;;;;;5020296;28;20860;-62
2023/08/03 03:42:15;;;;;;;12.70;6.83;;;17.90;99.90;;;;;;5021681;28;20486;-65
2023/08/03 03:44:42;;;;;;;10.27;6.03;;;17.90;99.90;;;;;;5016150;28;20842;-62
2023/08/03 03:47:09;;;;;;;9.97;7.40;;;17.70;99.90;;;;;;5020427;28;20485;-65
2023/08/03 03:49:36;;;;;;;7.87;4.50;;;17.70;99.90;;;;;;5020467;28;21156;-64
2023/08/03 03:52:03;;;;;;;11.30;6.70;;;17.70;99.90;;;;;;5020223;28;20608;-64
2023/08/03 03:54:30;;;;;;;12.03;6.77;;;16.70;99.90;;;;;;5022715;28;20480;-66
2023/08/03 03:56:58;;;;;;;7.77;3.90;;;17.50;99.90;;;;;;5019884;28;20492;-64
2023/08/03 03:59:26;;;;;;;7.87;4.20;;;17.60;99.90;;;;;;5017084;28;20742;-64
2023/08/03 04:01:53;;;;;;;9.47;3.50;;;17.60;99.90;;;;;;5018171;28;20484;-66
2023/08/03 04:04:20;;;;;;;10.67;5.57;;;17.60;99.90;;;;;;5014754;28;20486;-65
2023/08/03 04:06:46;;;;;;;6.80;4.10;;;17.50;99.90;;;;;;5019837;28;20854;-65
2023/08/03 04:09:13;;;;;;;12.27;5.37;;;17.50;99.90;;;;;;5021299;28;20487;-65
2023/08/03 04:11:40;;;;;;;8.47;4.97;;;17.40;99.90;;;;;;5021999;28;20483;-64
2023/08/03 04:14:07;;;;;;;13.80;7.00;;;17.40;99.90;;;;;;5020351;28;20832;-64
2023/08/03 04:16:35;;;;;;;8.77;6.07;;;17.50;99.90;;;;;;5018680;28;20982;-64
2023/08/03 04:19:03;;;;;;;7.10;4.60;;;17.40;99.90;;;;;;5017865;28;20481;-63
2023/08/03 04:21:30;;;;;;;8.20;4.47;;;17.40;99.90;;;;;;5014707;28;20563;-66
2023/08/03 04:23:57;;;;;;;11.67;5.97;;;17.40;99.90;;;;;;5019565;28;20504;-65
2023/08/03 04:26:23;;;;;;;6.20;4.80;;;17.50;99.90;;;;;;5019185;28;20488;-63
2023/08/03 04:29:47;;;;;;;10.70;4.37;;;17.30;99.90;;;;;;5019819;28;20472;-64
2023/08/03 04:32:16;;;;;;;11.17;7.17;;;17.40;99.90;;;;;;5016783;28;20837;-65
2023/08/03 04:34:42;;;;;;;9.20;5.73;;;17.30;99.90;;;;;;5019696;28;20486;-67
2023/08/03 04:37:09;;;;;;;11.80;7.20;;;17.30;99.90;;;;;;5020049;28;20499;-66
2023/08/03 04:39:36;;;;;;;8.10;5.30;;;17.30;99.90;;;;;;5020689;28;20450;-63
2023/08/03 04:42:03;;;;;;;13.17;6.87;;;17.40;99.90;;;;;;5020528;28;20496;-64
2023/08/03 04:44:30;;;;;;;15.13;4.87;;;17.30;99.90;;;;;;5010877;28;20477;-62
2023/08/03 04:46:57;;;;;;;10.23;5.47;;;17.30;99.90;;;;;;5022504;28;20476;-63
2023/08/03 04:49:26;;;;;;;15.80;5.60;;;17.30;99.90;;;;;;5031862;28;20483;-64
2023/08/03 04:51:53;;;;;;;8.27;4.20;;;17.10;99.90;;;;;;5023007;28;20505;-64
2023/08/03 04:54:20;;;;;;;8.83;3.77;;;;;;;;;;5018590;28;20485;-63
2023/08/03 04:56:47;;;;;;;13.63;6.13;;;17.20;99.90;;;;;;5013765;28;20486;-65
2023/08/03 04:59:14;;;;;;;12.07;5.77;;;17.10;99.90;;;;;;5018205;28;21220;-64
2023/08/03 05:01:41;;;;;;;13.37;4.27;;;17.20;99.90;;;;;;5020263;28;20833;-66
2023/08/03 05:04:09;;;;;;;15.13;6.60;;;17.20;99.90;;;;;;5019433;28;20840;-64
2023/08/03 05:06:37;;;;;;;13.17;5.77;;;17.30;99.90;;;;;;5023091;28;21188;-64
2023/08/03 05:09:04;;;;;;;9.90;6.30;;;17.20;99.90;;;;;;5023827;28;20486;-66
2023/08/03 05:11:31;;;;;;;11.37;4.53;;;17.20;99.90;;;;;;5026661;28;20485;-63
2023/08/03 05:13:58;;;;;;;7.50;4.07;;;17.20;99.90;;;;;;5022590;28;20471;-63
2023/08/03 05:16:26;;;;;;;5.30;4.00;;;17.40;99.90;;;;;;5022131;28;20594;-63
2023/08/03 05:18:53;;;;;;;10.43;4.70;;;17.30;99.90;;;;;;5020045;28;20606;-62
2023/08/03 05:21:20;;;;;;;4.90;3.17;;;17.30;99.90;;;;;;5021574;28;20921;-64
2023/08/03 05:23:48;;;;;;;8.80;4.60;;;17.30;99.90;;;;;;5015682;28;20476;-64
2023/08/03 05:26:15;;;;;;;14.07;5.47;;;17.40;99.90;;;;;;5019237;28;20558;-63
2023/08/03 05:28:42;;;;;;;10.67;5.30;;;17.40;99.90;;;;;;5031489;28;20468;-62
2023/08/03 05:31:09;;;;;;;11.73;6.40;;;17.40;99.90;;;;;;5031863;28;20480;-65
2023/08/03 05:33:36;;;;;;;9.90;4.60;;;17.40;99.90;;;;;;5019853;28;20484;-64
2023/08/03 05:36:04;;;;;;;13.00;5.50;;;17.50;99.90;;;;;;5016612;28;20944;-65
2023/08/03 05:38:31;;;;;;;8.57;4.30;;;17.30;99.90;;;;;;5021565;28;20491;-63
2023/08/03 05:41:00;;;;;;;8.90;5.63;;;17.40;99.90;;;;;;5013947;28;20479;-65
2023/08/03 05:43:28;;;;;;;10.60;4.90;;;17.50;99.90;;;;;;5022269;28;20541;-63
2023/08/03 05:46:01;;;;;;;10.63;4.53;;;17.40;99.90;;;;;;5022658;28;21106;-65
2023/08/03 05:48:30;;;;;;;13.00;4.40;;;17.50;99.90;;;;;;5020971;28;20873;-62
2023/08/03 05:50:57;;;;;;;11.53;4.90;;;17.50;99.90;;;;;;5020739;28;20488;-64
2023/08/03 05:53:25;;;;;;;7.23;4.50;;;17.40;99.90;;;;;;5028179;28;20526;-64
2023/08/03 05:55:51;;;;;;;12.70;4.10;;;17.40;99.90;;;;;;5024620;28;20808;-64
2023/08/03 05:58:20;;;;;;;13.87;5.30;;;17.50;99.90;;;;;;5024569;28;20491;-65
2023/08/03 06:00:48;;;;;;;8.83;4.80;;;17.40;99.90;;;;;;5029418;28;20488;-65
2023/08/03 06:03:17;;;;;;;14.10;6.03;;;17.40;99.90;;;;;;5026075;28;20514;-64
2023/08/03 06:05:45;;;;;;;13.47;3.80;;;17.40;99.90;;;;;;5034847;28;20474;-66
2023/08/03 06:08:16;;;;;;;10.80;6.27;;;17.50;99.90;;;;;;5024968;28;20824;-62
2023/08/03 06:10:44;;;;;;;10.10;4.47;;;17.40;99.90;;;;;;5024764;28;20761;-64
2023/08/03 06:13:13;;;;;;;17.20;8.57;;;17.50;99.90;;;;;;5020892;28;20509;-65
2023/08/03 06:15:43;;;;;;;9.03;4.40;;;17.50;99.90;;;;;;5021671;28;21029;-61
2023/08/03 06:18:12;;;;;;;13.00;6.93;;;17.40;99.90;;;;;;5021262;28;20576;-63
2023/08/03 06:20:43;;;;;;;9.43;4.13;;;17.40;99.90;;;;;;5021022;28;20818;-64
2023/08/03 06:23:16;;;;;;;13.23;7.23;;;17.40;99.90;;;;;;5022279;28;20496;-63
2023/08/03 06:25:43;;;;;;;13.40;5.90;;;17.50;99.90;;;;;;5019604;28;20488;-65
2023/08/03 06:28:11;;;;;;;11.53;6.83;;;17.50;99.90;;;;;;5021322;28;20996;-64
2023/08/03 06:30:38;;;;;;;9.83;5.40;;;17.40;99.90;;;;;;5019711;28;20488;-64
2023/08/03 06:33:09;;;;;;;16.13;8.07;;;17.50;99.90;;;;;;5019871;28;20512;-64
2023/08/03 06:35:38;;;;;;;9.43;4.80;;;17.50;99.90;;;;;;5019621;28;20494;-66
2023/08/03 06:38:05;;;;;;;15.83;7.00;;;17.50;99.90;;;;;;5018376;28;20480;-62
2023/08/03 06:40:33;;;;;;;12.47;5.37;;;17.60;99.90;;;;;;5019667;28;20518;-64
2023/08/03 06:43:01;;;;;;;9.83;6.50;;;17.60;99.90;;;;;;5021488;28;20487;-65
2023/08/03 06:45:30;;;;;;;8.10;4.50;;;17.60;99.90;;;;;;5022474;28;20487;-64
2023/08/03 06:47:57;;;;;;;8.30;4.17;;;17.60;99.90;;;;;;5020931;28;20483;-63
2023/08/03 06:50:26;;;;;;;7.93;3.90;;;17.60;99.90;;;;;;5018439;28;20839;-61
2023/08/03 06:52:53;;;;;;;13.13;4.30;;;17.50;99.90;;;;;;5012156;28;20478;-62
2023/08/03 06:55:20;;;;;;;17.87;5.07;;;17.60;99.90;;;;;;5019115;28;20931;-65
2023/08/03 06:57:47;;;;;;;10.00;5.00;;;17.50;99.90;;;;;;5022522;28;20889;-63
2023/08/03 07:00:14;;;;;;;9.20;4.70;;;17.70;99.90;;;;;;5021825;28;20487;-63
2023/08/03 07:02:41;;;;;;;6.63;4.13;;;17.60;99.90;;;;;;5024270;28;21166;-65
2023/08/03 07:05:09;;;;;;;12.03;7.33;;;17.50;99.90;;;;;;5020186;28;20477;-65
2023/08/03 07:07:37;;;;;;;12.43;5.40;;;17.60;99.90;;;;;;5027495;28;20522;-65
2023/08/03 07:10:05;;;;;;;21.10;7.43;;;17.60;99.90;;;;;;5023066;28;20483;-65
2023/08/03 07:12:32;;;;;;;20.83;5.80;;;17.70;99.90;;;;;;5021539;28;20583;-65
2023/08/03 07:14:59;;;;;;;12.57;5.83;;;17.70;99.90;;;;;;5017063;28;20814;-62
2023/08/03 07:17:26;;;;;;;7.53;4.33;;;17.80;99.90;;;;;;5021547;28;20468;-64
2023/08/03 07:19:54;;;;;;;11.67;3.30;;;17.90;99.90;;;;;;5023400;28;20812;-63
2023/08/03 07:22:21;;;;;;;10.53;4.50;;;17.90;99.90;;;;;;5018101;28;20747;-64
2023/08/03 07:24:49;;;;;;;7.80;5.07;;;17.90;99.90;;;;;;5020212;28;20499;-63
2023/08/03 07:27:16;;;;;;;11.33;5.10;;;17.80;99.90;;;;;;5019292;28;20578;-62
2023/08/03 07:29:44;;;;;;;5.33;2.80;;;17.80;99.90;;;;;;5018897;28;20508;-64
2023/08/03 07:32:12;;;;;;;9.20;5.60;;;17.90;99.90;;;;;;5019659;28;21493;-63
2023/08/03 07:34:39;;;;;;;11.90;5.30;;;18.00;99.90;;;;;;5021024;28;20476;-66
2023/08/03 07:37:07;;;;;;;10.67;7.33;;;18.00;99.90;;;;;;5021023;28;20564;-66
2023/08/03 07:39:34;;;;;;;6.80;3.10;;;17.90;99.90;;;;;;5031595;28;20491;-65
2023/08/03 07:42:02;;;;;;;9.03;6.37;;;17.90;99.90;;;;;;5017880;28;20504;-63
2023/08/03 07:44:29;;;;;;;5.97;3.67;;;17.90;99.90;;;;;;5020587;28;20463;-65
2023/08/03 07:46:56;;;;;;;4.20;3.83;;;17.90;99.90;;;;;;5020151;28;22008;-65
2023/08/03 07:49:23;;;;;;;6.53;3.20;;;18.00;99.90;;;;;;5021128;28;20486;-63
2023/08/03 07:51:50;;;;;;;3.63;2.73;;;18.00;99.90;;;;;;5017202;28;20767;-65
2023/08/03 07:54:17;;;;;;;4.83;4.33;;;18.00;99.90;;;;;;5019840;28;21004;-63
2023/08/03 07:56:43;;;;;;;9.73;3.47;;;18.00;99.90;;;;;;5019727;28;20447;-64
2023/08/03 07:59:13;;;;;;;11.20;5.47;;;18.00;99.90;;;;;;5019624;28;20484;-64
2023/08/03 08:01:43;;;;;;;7.60;3.43;;;18.10;99.90;;;;;;5018998;28;20472;-63
2023/08/03 08:04:10;;;;;;;14.50;6.00;;;18.10;99.90;;;;;;5017226;28;20480;-64
2023/08/03 08:06:37;;;;;;;6.53;4.33;;;18.00;99.90;;;;;;5020064;28;21023;-64
2023/08/03 08:09:04;;;;;;;9.90;5.23;;;18.00;99.90;;;;;;5022478;28;20840;-64
2023/08/03 08:11:31;;;;;;;4.67;2.87;;;18.00;99.90;;;;;;5017110;28;21008;-65
2023/08/03 08:13:59;;;;;;;5.17;4.03;;;17.90;99.90;;;;;;5018006;28;20459;-65
2023/08/03 08:16:27;;;;;;;8.17;3.43;;;17.90;99.90;;;;;;5020855;28;20926;-64
2023/08/03 08:18:54;;;;;;;4.33;1.93;;;18.00;99.90;;;;;;5018903;28;21052;-66
2023/08/03 08:21:21;;;;;;;5.07;3.60;;;17.80;99.90;;;;;;5020042;28;20490;-65
2023/08/03 08:23:48;;;;;;;7.20;4.10;;;17.90;99.90;;;;;;5015830;28;20689;-65
2023/08/03 08:26:16;;;;;;;4.63;4.20;;;17.80;99.90;;;;;;5018613;28;20479;-64
2023/08/03 08:28:44;;;;;;;20.13;3.93;;;17.90;99.90;;;;;;5016858;28;20822;-64
2023/08/03 08:31:11;;;;;;;11.43;4.83;;;18.00;99.90;;;;;;5020803;28;20812;-64
2023/08/03 08:33:40;;;;;;;4.70;3.50;;;17.90;99.90;;;;;;5019985;28;20713;-65
2023/08/03 08:36:07;;;;;;;8.63;5.10;;;18.00;99.90;;;;;;5018380;28;20833;-64
2023/08/03 08:38:33;;;;;;;7.33;3.23;;;18.00;99.90;;;;;;5016793;28;20580;-64
2023/08/03 08:41:02;;;;;;;5.67;4.20;;;18.00;99.90;;;;;;5020306;28;20480;-65
2023/08/03 08:43:29;;;;;;;5.47;3.40;;;18.00;99.90;;;;;;5019646;28;20501;-66
2023/08/03 08:45:56;;;;;;;3.33;2.30;;;18.00;99.90;;;;;;5014507;28;20469;-65
2023/08/03 08:48:23;;;;;;;4.80;3.57;;;18.10;99.90;;;;;;5018791;28;20477;-66
2023/08/03 08:50:52;;;;;;;5.30;3.10;;;18.10;99.90;;;;;;5017100;28;20478;-63
2023/08/03 08:53:19;;;;;;;3.43;3.07;;;18.10;99.90;;;;;;5028312;28;20885;-64
2023/08/03 08:55:46;;;;;;;5.73;3.30;;;18.00;99.90;;;;;;5021952;28;21020;-62
2023/08/03 08:58:13;;;;;;;7.30;4.97;;;18.00;99.90;;;;;;5018906;28;20570;-67
2023/08/03 09:00:44;;;;;;;7.80;4.80;;;17.90;99.90;;;;;;5021475;28;20491;-67
2023/08/03 09:03:12;;;;;;;6.50;5.90;;;17.80;99.90;;;;;;5018819;28;20502;-64
2023/08/03 09:05:40;;;;;;;4.50;3.13;;;18.00;99.90;;;;;;5018123;28;20563;-64
2023/08/03 09:08:10;;;;;;;5.97;4.80;;;17.80;99.90;;;;;;5020138;28;20487;-65
2023/08/03 09:10:51;;;;;;;5.70;3.00;;;17.70;99.90;;;;;;5018560;28;20471;-66
2023/08/03 09:13:28;;;;;;;4.27;3.33;;;17.70;99.90;;;;;;5020963;28;20558;-64
2023/08/03 09:15:55;;;;;;;3.97;3.37;;;17.70;99.90;;;;;;5017348;28;21120;-65
2023/08/03 09:18:23;;;;;;;3.60;3.30;;;17.80;99.90;;;;;;5019165;28;20468;-64
2023/08/03 09:20:50;;;;;;;3.30;3.00;;;17.70;99.90;;;;;;5018516;28;20952;-66
2023/08/03 09:23:31;;;;;;;4.70;2.70;;;17.70;99.90;;;;;;5015830;28;20485;-65
2023/08/03 09:25:58;;;;;;;10.60;3.63;;;17.80;99.90;;;;;;5016983;28;20488;-64
2023/08/03 09:28:35;;;;;;;4.30;3.00;;;17.80;99.90;;;;;;5017062;28;21064;-65
2023/08/03 09:31:02;;;;;;;5.33;4.07;;;17.80;99.90;;;;;;5006431;28;21041;-68
2023/08/03 09:33:29;;;;;;;5.80;3.70;;;17.80;99.90;;;;;;5010951;28;20468;-64
2023/08/03 09:36:03;;;;;;;3.17;2.90;;;17.70;99.90;;;;;;5017708;28;20487;-67
2023/08/03 09:38:32;;;;;;;3.77;3.43;;;17.80;99.90;;;;;;5001404;28;20491;-65
2023/08/03 09:40:59;;;;;;;4.63;4.17;;;17.60;99.90;;;;;;5029923;28;20467;-68
2023/08/03 09:43:28;;;;;;;4.97;3.37;;;17.60;99.90;;;;;;5017837;28;20455;-65
2023/08/03 09:45:56;;;;;;;4.13;2.80;;;17.50;99.90;;;;;;5016272;28;20467;-66
2023/08/03 09:48:24;;;;;;;4.77;3.50;;;17.50;99.90;;;;;;5019494;28;20492;-65
2023/08/03 09:50:52;;;;;;;4.27;2.77;;;17.50;99.90;;;;;;5016980;28;20659;-65
2023/08/03 09:53:22;;;;;;;6.00;3.93;;;17.60;99.90;;;;;;5017617;28;20666;-67
2023/08/03 09:55:58;;;;;;;4.83;3.67;;;17.70;99.90;;;;;;5016587;28;20490;-66
2023/08/03 09:58:30;;;;;;;5.23;3.03;;;17.80;99.90;;;;;;5022663;28;20482;-67
2023/08/03 10:01:00;;;;;;;3.80;3.43;;;17.90;99.90;;;;;;5020677;28;20559;-65
2023/08/03 10:03:29;;;;;;;4.30;3.37;;;17.90;99.90;;;;;;5021956;28;20484;-63
2023/08/03 10:06:03;;;;;;;3.93;3.57;;;17.90;99.90;;;;;;5018682;28;20483;-66
2023/08/03 10:08:37;;;;;;;5.10;3.77;;;17.90;99.90;;;;;;5009869;28;20480;-66
2023/08/03 10:11:07;;;;;;;6.40;5.70;;;17.80;99.90;;;;;;5009673;28;20719;-62
2023/08/03 10:13:35;;;;;;;10.60;3.70;;;17.50;99.90;;;;;;5020546;28;20551;-65
2023/08/03 10:16:02;;;;;;;10.87;7.60;;;17.40;99.90;;;;;;5018623;28;21385;-64
2023/08/03 10:18:30;;;;;;;5.10;4.37;;;17.30;99.90;;;;;;5025539;28;20479;-66
2023/08/03 10:20:58;;;;;;;3.57;3.17;;;17.40;99.90;;;;;;5020241;28;20697;-64
2023/08/03 10:23:25;;;;;;;6.47;3.90;;;17.40;99.90;;;;;;5022612;28;20576;-67
2023/08/03 10:25:54;;;;;;;6.83;3.17;;;17.40;99.90;;;;;;5019227;28;20573;-68
2023/08/03 10:28:23;;;;;;;7.07;5.90;;;17.40;99.90;;;;;;5014499;28;20564;-67
2023/08/03 10:31:10;;;;;;;6.57;4.63;;;17.40;99.90;;;;;;5009300;28;20484;-70
2023/08/03 10:34:05;;;;;;;6.20;5.27;;;17.50;99.90;;;;;;5015911;28;20481;-65
2023/08/03 10:36:38;;;;;;;4.20;3.80;;;17.50;99.90;;;;;;5015851;28;20476;-65
2023/08/03 10:39:07;;;;;;;7.73;6.30;;;17.50;99.90;;;;;;5011406;28;20489;-67
2023/08/03 10:41:37;;;;;;;4.10;3.30;;;17.60;99.90;;;;;;5005318;28;20481;-63
2023/08/03 10:44:24;;;;;;;9.03;6.93;;;17.70;99.90;;;;;;5020383;28;20487;-66
2023/08/03 10:46:53;;;;;;;4.00;2.87;;;18.70;99.90;;;;;;5021262;28;20475;-62
2023/08/03 10:49:52;;;;;;;4.83;3.93;;;17.50;99.90;;;;;;5020148;28;20488;-65
2023/08/03 10:52:21;;;;;;;5.40;3.60;;;17.60;99.90;;;;;;5019797;28;20483;-67
2023/08/03 10:54:48;;;;;;;4.43;3.77;;;17.60;99.90;;;;;;5020706;28;20631;-67
2023/08/03 10:57:18;;;;;;;6.80;4.93;;;17.90;99.90;;;;;;5019582;28;20849;-63
2023/08/03 10:59:48;;;;;;;3.83;3.33;;;18.10;99.90;;;;;;5020098;28;20480;-66
2023/08/03 11:02:18;;;;;;;6.40;4.90;;;18.30;99.90;;;;;;5017693;28;20986;-67
2023/08/03 11:04:45;;;;;;;4.93;4.40;;;18.60;99.90;;;;;;5019970;28;20483;-65
2023/08/03 11:07:16;;;;;;;7.97;4.77;;;18.40;99.90;;;;;;5019696;28;20486;-63
2023/08/03 11:09:44;;;;;;;5.50;4.70;;;18.50;99.90;;;;;;5026352;28;20471;-67
2023/08/03 11:12:11;;;;;;;8.03;6.03;;;18.50;99.90;;;;;;5025827;28;20479;-68
2023/08/03 11:14:39;;;;;;;5.23;4.10;;;18.50;99.90;;;;;;5021222;28;21127;-65
2023/08/03 11:17:08;;;;;;;7.90;6.43;;;18.60;99.90;;;;;;5016649;28;21104;-66
2023/08/03 11:19:38;;;;;;;5.63;4.60;;;18.60;99.90;;;;;;5019787;28;20502;-66
2023/08/03 11:22:06;;;;;;;7.93;5.80;;;18.60;99.90;;;;;;5005633;28;20878;-66
2023/08/03 11:24:34;;;;;;;7.70;4.63;;;18.50;99.90;;;;;;5018490;28;20466;-66
2023/08/03 11:27:03;;;;;;;8.33;4.93;;;18.40;99.90;;;;;;5024465;28;20455;-67
2023/08/03 11:29:31;;;;;;;4.73;3.93;;;18.30;99.90;;;;;;5023500;28;20559;-65
2023/08/03 11:31:58;;;;;;;4.97;3.47;;;18.10;99.90;;;;;;5023302;28;21041;-66
2023/08/03 11:34:26;;;;;;;10.20;5.60;;;17.80;99.90;;;;;;5022706;28;20482;-63
2023/08/03 11:36:53;;;;;;;4.60;4.10;;;17.90;99.90;;;;;;5024483;28;20493;-66
2023/08/03 11:39:20;;;;;;;5.07;4.20;;;17.80;99.90;;;;;;5021911;28;21114;-66
2023/08/03 11:41:48;;;;;;;7.60;4.03;;;17.90;99.90;;;;;;5022255;28;20525;-67
2023/08/03 11:44:15;;;;;;;6.97;5.63;;;18.00;99.90;;;;;;5019068;28;21010;-65
2023/08/03 11:46:42;;;;;;;5.77;4.93;;;18.10;99.90;;;;;;5024100;28;20968;-68
2023/08/03 11:49:13;;;;;;;7.43;5.63;;;18.10;99.90;;;;;;5027340;28;20560;-65
2023/08/03 11:51:41;;;;;;;5.20;4.17;;;18.20;99.90;;;;;;5020711;28;20483;-67
2023/08/03 11:54:10;;;;;;;6.77;5.77;;;18.20;99.90;;;;;;5017239;28;20729;-65
2023/08/03 11:56:39;;;;;;;3.47;3.17;;;18.20;99.90;;;;;;5009731;28;20494;-67
2023/08/03 11:59:08;;;;;;;8.60;5.87;;;18.40;99.90;;;;;;5005864;28;20880;-66
2023/08/03 12:01:44;;;;;;;3.53;3.23;;;18.50;99.90;;;;;;5016624;28;20479;-66
2023/08/03 12:04:11;;;;;;;6.27;5.67;;;18.70;99.90;;;;;;5018872;28;20479;-64
2023/08/03 12:06:47;;;;;;;3.97;3.67;;;18.90;99.90;;;;;;5018632;28;20480;-65
2023/08/03 12:09:22;;;;;;;6.07;3.27;;;19.20;99.90;;;;;;5022455;28;20482;-66
2023/08/03 12:11:49;;;;;;;3.10;2.73;;;19.40;99.90;;;;;;5021453;28;20483;-66
2023/08/03 12:14:17;;;;;;;5.67;4.87;;;19.40;99.90;;;;;;5016637;28;20574;-67
2023/08/03 12:16:44;;;;;;;4.23;3.40;;;19.40;99.90;;;;;;5019814;28;20477;-65
2023/08/03 12:19:11;;;;;;;7.03;5.40;;;19.30;99.90;;;;;;5019077;28;20509;-66
2023/08/03 12:21:39;;;;;;;3.47;3.07;;;19.40;99.90;;;;;;5020854;28;20479;-65
2023/08/03 12:24:08;;;;;;;6.50;5.40;;;19.30;99.90;;;;;;5004753;28;21306;-64
2023/08/03 12:26:35;;;;;;;3.70;3.20;;;19.30;99.90;;;;;;5019974;28;20489;-67
2023/08/03 12:29:03;;;;;;;7.13;5.40;;;19.30;99.90;;;;;;5019833;28;20474;-66
2023/08/03 12:31:31;;;;;;;4.10;3.07;;;19.30;99.90;;;;;;5020381;28;20567;-64
2023/08/03 12:33:58;;;;;;;3.83;3.43;;;19.20;99.90;;;;;;5017068;28;20495;-65
2023/08/03 12:36:26;;;;;;;6.60;3.27;;;19.20;99.90;;;;;;5019776;28;20570;-67
2023/08/03 12:38:53;;;;;;;3.23;2.47;;;19.20;99.90;;;;;;5015543;28;20485;-64
2023/08/03 12:41:22;;;;;;;4.87;3.80;;;19.30;99.90;;;;;;5022841;28;20554;-65
2023/08/03 12:43:49;;;;;;;5.93;3.00;;;19.30;99.90;;;;;;5023319;28;20514;-65
2023/08/03 12:46:16;;;;;;;5.53;3.37;;;19.40;99.90;;;;;;5022306;28;20561;-65
2023/08/03 12:48:43;;;;;;;5.57;3.47;;;19.40;99.90;;;;;;5019909;28;21074;-66